Bookmark and Share
Track history (hours):
 

Spaceon02064

Last reported at 2014-Apr-23 14:19 UTC. Time now 2014-Apr-23 18:55 UTC.
Position N 31°58' E 120°06'.

Length 6 m.

Type: Ship. MMSI: 200902064.

NotesDate/timePositionNaut miles runAvg speedWind from/ knotsBaromVisibWave heightAir tempDewpointWater temp
2014-Apr-23 14:19N 31°58' E 120°06'4 5.0
2014-Apr-23 13:33N 31°57' E 120°10'4 4.5
2014-Apr-23 12:33N 31°57' E 120°16'4 3.8
2014-Apr-23 11:33N 31°58' E 120°20'5 3.9
2014-Apr-23 10:23N 31°58' E 120°25'1 1.6
2014-Apr-23 09:33N 31°59' E 120°26'70195.6
2014-Apr-23 09:12N 31°15' E 121°30'70108.0
2014-Apr-23 08:34N 31°59' E 120°26'0 0.0
2014-Apr-23 07:33N 31°59' E 120°26'0 0.0
2014-Apr-23 06:34N 31°59' E 120°26'651934.4
2014-Apr-23 06:32N 31°23' E 121°30'6567.2
2014-Apr-23 05:33N 31°59' E 120°26'0 0.0
2014-Apr-23 04:34N 31°59' E 120°26'0 0.0
2014-Apr-23 03:33N 31°59' E 120°26'0 0.1
2014-Apr-23 02:34N 31°59' E 120°26'0 0.1
2014-Apr-23 01:34N 31°59' E 120°26'0 0.0
2014-Apr-23 00:33N 31°59' E 120°26'0 0.0
2014-Apr-22 23:34N 31°59' E 120°26'0 0.1
2014-Apr-22 22:34N 31°59' E 120°27'0 0.0
2014-Apr-22 21:33N 31°59' E 120°27'0 0.0
2014-Apr-22 20:33N 31°59' E 120°27'0 0.0
2014-Apr-22 19:33N 31°59' E 120°27'0 0.0
2014-Apr-22 18:33N 31°59' E 120°27'0 0.0
2014-Apr-22 17:33N 31°59' E 120°27'0 0.0
2014-Apr-22 16:34N 31°59' E 120°27'0 0.4
2014-Apr-22 15:30N 31°59' E 120°27'0 0.0
2014-Apr-22 14:33N 31°59' E 120°27'0 0.0
2014-Apr-22 13:33N 31°59' E 120°27'0 0.0
2014-Apr-22 12:33N 31°59' E 120°27'0 0.0
2014-Apr-22 11:33N 31°59' E 120°27'0 0.0
2014-Apr-22 10:33N 31°59' E 120°27'0 0.0
2014-Apr-22 09:29N 31°59' E 120°27'0 0.1
2014-Apr-22 08:33N 31°59' E 120°27'0 0.0
2014-Apr-22 07:33N 31°59' E 120°27'0 0.0
2014-Apr-22 06:33N 31°59' E 120°27'0 0.0
2014-Apr-22 05:33N 31°59' E 120°27'0 0.0
2014-Apr-22 04:33N 31°59' E 120°27'0 0.0
2014-Apr-22 03:33N 31°59' E 120°27'0 0.0
2014-Apr-22 02:33N 31°59' E 120°27'0 0.3
2014-Apr-22 01:33N 31°59' E 120°27'0 0.0
2014-Apr-22 00:33N 31°59' E 120°27'0 0.0
2014-Apr-21 23:33N 31°59' E 120°27'0 0.0
2014-Apr-21 22:33N 31°59' E 120°27'0 0.0
2014-Apr-21 21:33N 31°59' E 120°27'0 0.0
2014-Apr-21 20:33N 31°59' E 120°27'0 0.0
2014-Apr-21 19:33N 31°59' E 120°27'0 0.0
2014-Apr-21 18:33N 31°59' E 120°27'0 0.0
2014-Apr-21 17:28N 31°59' E 120°27'0 0.0
2014-Apr-21 16:33N 31°59' E 120°27'0 0.0
2014-Apr-21 15:33N 31°59' E 120°27'0 0.0
2014-Apr-21 14:17N 31°59' E 120°27'0 0.0
2014-Apr-21 13:33N 31°59' E 120°27'0 0.0
2014-Apr-21 12:29N 31°59' E 120°27'0 0.0
2014-Apr-21 11:33N 31°59' E 120°27'6 0.3
2014-Apr-20 13:10N 32°01' E 120°34'5 7.3
2014-Apr-20 12:29N 32°02' E 120°28'6 6.5
2014-Apr-20 11:33N 31°59' E 120°22'6 0.2
2014-Apr-18 22:15N 31°57' E 120°15'10 0.9
2014-Apr-18 11:32N 31°59' E 120°27'5 4.6
2014-Apr-18 10:30N 32°02' E 120°31'15 0.6
2014-Apr-17 10:06N 31°56' E 120°15'5 9.3
2014-Apr-17 09:33N 31°59' E 120°20'8 8.2
2014-Apr-17 08:33N 32°02' E 120°29'14818.5
2014-Apr-17 00:33N 29°58' E 122°03'7 1.2
2014-Apr-16 18:31N 29°52' E 122°08'9 0.3
2014-Apr-15 15:30N 29°60' E 122°01'8789.9
2014-Apr-15 14:32N 31°22' E 121°30'941337.8
2014-Apr-15 14:28N 29°54' E 122°08'156 3.8
2014-Apr-13 21:09N 31°58' E 120°18'5 7.4
2014-Apr-13 20:24N 32°01' E 120°24'  

Dump ship's entire track history

sailing weather and tide predictions

Spaceon02064 — ASD — position and weather